createdAt,value
2018-12-06T00:00:52.332Z,8.38
2018-12-06T00:03:53.065Z,9.73
2018-12-06T00:06:53.802Z,8.45
2018-12-06T00:09:56.076Z,12.35
2018-12-06T00:12:56.809Z,9.05
2018-12-06T00:15:59.085Z,8.08
2018-12-06T00:18:59.563Z,7.00
2018-12-06T00:22:01.580Z,16.90
2018-12-06T00:25:02.318Z,8.58
2018-12-06T00:28:03.056Z,8.85
2018-12-06T00:31:18.120Z,8.53
2018-12-06T00:34:19.625Z,8.50
2018-12-06T00:37:20.110Z,7.97
2018-12-06T00:40:21.611Z,19.52
2018-12-06T00:43:22.602Z,9.13
2018-12-06T00:46:24.363Z,7.50
2018-12-06T00:49:27.923Z,5.95
2018-12-06T00:52:22.762Z,8.25
2018-12-06T00:55:23.502Z,7.83
2018-12-06T00:58:25.771Z,6.25
2018-12-06T01:01:30.089Z,8.30
2018-12-06T01:04:31.340Z,8.70
2018-12-06T01:07:32.842Z,7.30
2018-12-06T01:10:33.323Z,7.05
2018-12-06T01:13:34.059Z,6.15
2018-12-06T01:16:36.076Z,7.83
2018-12-06T01:19:39.639Z,5.62
2018-12-06T01:22:40.106Z,6.45
2018-12-06T01:25:40.846Z,7.65
2018-12-06T01:28:42.604Z,5.58
2018-12-06T01:31:43.082Z,6.67
2018-12-06T01:34:43.819Z,6.20
2018-12-06T01:37:44.301Z,6.97
2018-12-06T01:40:46.577Z,7.17
2018-12-06T01:43:47.307Z,6.10
2018-12-06T01:46:48.553Z,5.92
2018-12-06T01:49:49.038Z,6.47
2018-12-06T01:52:49.771Z,9.05
2018-12-06T01:55:51.283Z,6.42
2018-12-06T01:58:51.757Z,6.67
2018-12-06T02:01:52.235Z,6.40
2018-12-06T02:04:53.229Z,5.95
2018-12-06T02:07:56.779Z,6.03
2018-12-06T02:10:57.515Z,5.72
2018-12-06T02:13:58.505Z,4.72
2018-12-06T02:16:58.990Z,5.33
2018-12-06T02:19:59.726Z,5.10
2018-12-06T02:23:00.463Z,4.15
2018-12-06T02:25:57.098Z,4.42
2018-12-06T02:28:57.578Z,7.87
2018-12-06T02:31:58.058Z,5.22
2018-12-06T02:34:58.816Z,4.75
2018-12-06T02:37:59.021Z,4.97
2018-12-06T02:40:59.755Z,3.95
2018-12-06T02:44:00.236Z,4.40
2018-12-06T02:47:00.717Z,6.30
2018-12-06T02:50:01.709Z,4.30
2018-12-06T02:53:02.704Z,4.30
2018-12-06T02:56:03.178Z,4.17
2018-12-06T02:59:03.915Z,3.90
2018-12-06T03:02:04.913Z,3.60
2018-12-06T03:05:05.643Z,3.37
2018-12-06T03:08:06.382Z,3.60
2018-12-06T03:11:07.883Z,3.37
2018-12-06T03:14:08.362Z,4.83
2018-12-06T03:17:09.098Z,4.20
2018-12-06T03:20:12.651Z,4.03
2018-12-06T03:23:13.390Z,4.15
2018-12-06T03:26:14.141Z,3.90
2018-12-06T03:29:14.602Z,4.00
2018-12-06T03:32:15.601Z,3.55
2018-12-06T03:35:16.331Z,3.77
2018-12-06T03:38:17.066Z,6.03
2018-12-06T03:41:17.801Z,3.50
2018-12-06T03:44:18.285Z,3.17
2018-12-06T03:47:27.467Z,3.10
2018-12-06T03:50:27.951Z,2.72
2018-12-06T03:53:27.408Z,2.83
2018-12-06T03:56:28.137Z,2.80
2018-12-06T03:59:32.971Z,2.10
2018-12-06T04:02:33.706Z,1.80
2018-12-06T04:05:34.715Z,1.80
2018-12-06T04:08:36.209Z,1.90
2018-12-06T04:11:37.967Z,1.25
2018-12-06T04:14:39.218Z,1.80
2018-12-06T04:17:39.691Z,1.70
2018-12-06T04:20:44.267Z,1.60
2018-12-06T04:23:46.025Z,1.85
2018-12-06T04:26:46.510Z,1.87
2018-12-06T04:29:47.241Z,1.92
2018-12-06T04:32:48.235Z,1.80
2018-12-06T04:35:48.717Z,1.90
2018-12-06T04:38:49.453Z,1.55
2018-12-06T04:41:50.186Z,1.80
2018-12-06T04:44:51.178Z,1.90
2018-12-06T04:47:51.927Z,1.57
2018-12-06T04:50:53.419Z,1.62
2018-12-06T04:53:54.415Z,1.37
2018-12-06T04:56:55.147Z,1.60
2018-12-06T04:59:56.919Z,1.70
2018-12-06T05:02:57.644Z,1.95
2018-12-06T05:05:58.384Z,2.17
2018-12-06T05:08:58.863Z,1.77
2018-12-06T05:12:02.414Z,1.70
2018-12-06T05:15:03.148Z,1.85
2018-12-06T05:18:04.906Z,2.10
2018-12-06T05:21:05.648Z,1.37
2018-12-06T05:24:06.453Z,1.52
2018-12-06T05:27:06.860Z,1.72
2018-12-06T05:30:08.483Z,1.35
2018-12-06T05:33:08.328Z,1.52
2018-12-06T05:36:10.095Z,1.37
2018-12-06T05:39:11.336Z,1.70
2018-12-06T05:42:12.840Z,2.17
2018-12-06T05:45:24.843Z,1.27
2018-12-06T05:48:25.327Z,1.22
2018-12-06T05:51:26.068Z,1.37
2018-12-06T05:54:27.306Z,1.45
2018-12-06T05:57:31.150Z,1.30
2018-12-06T06:00:31.849Z,1.17
2018-12-06T06:03:32.589Z,1.35
2018-12-06T06:06:33.580Z,1.20
2018-12-06T06:09:34.574Z,1.20
2018-12-06T06:12:39.148Z,1.10
2018-12-06T06:15:40.149Z,1.02
2018-12-06T06:18:41.644Z,1.50
2018-12-06T06:21:42.382Z,1.20
2018-12-06T06:24:44.905Z,1.15
2018-12-06T06:27:45.900Z,1.30
2018-12-06T06:30:46.891Z,1.12
2018-12-06T06:33:47.625Z,1.30
2018-12-06T06:36:50.462Z,1.12
2018-12-06T06:39:49.098Z,1.20
2018-12-06T06:42:49.834Z,1.42
2018-12-06T06:45:50.573Z,1.47
2018-12-06T06:48:52.586Z,1.90
2018-12-06T06:51:53.320Z,1.07
2018-12-06T06:54:54.312Z,1.20
2018-12-06T06:57:55.816Z,1.55
2018-12-06T07:00:56.553Z,1.60
2018-12-06T07:03:57.549Z,1.45
2018-12-06T07:06:58.542Z,1.15
2018-12-06T07:09:59.273Z,1.05
2018-12-06T07:13:01.545Z,1.30
2018-12-06T07:16:02.537Z,1.00
2018-12-06T07:19:03.274Z,1.30
2018-12-06T07:22:04.266Z,1.10
2018-12-06T07:25:05.005Z,1.37
2018-12-06T07:28:05.737Z,1.62
2018-12-06T07:31:06.473Z,1.32
2018-12-06T07:34:07.465Z,1.30
2018-12-06T07:37:08.203Z,1.00
2018-12-06T07:40:08.940Z,0.93
2018-12-06T07:43:09.674Z,1.30
2018-12-06T07:46:10.409Z,1.17
2018-12-06T07:49:10.890Z,0.80
2018-12-06T07:52:20.075Z,1.45
2018-12-06T07:55:20.810Z,1.70
2018-12-06T07:58:21.553Z,1.00
2018-12-06T08:01:22.546Z,1.80
2018-12-06T08:04:23.284Z,2.02
2018-12-06T08:07:24.814Z,1.20
2018-12-06T08:10:26.030Z,1.65
2018-12-06T08:13:26.768Z,2.00
2018-12-06T08:16:27.495Z,1.60
2018-12-06T08:19:28.233Z,0.93
2018-12-06T08:22:28.459Z,2.15
2018-12-06T08:25:29.192Z,1.90
2018-12-06T08:28:33.002Z,2.00
2018-12-06T08:31:33.735Z,2.77
2018-12-06T08:34:34.729Z,1.37
2018-12-06T08:37:35.207Z,2.47
2018-12-06T08:40:36.456Z,1.82
2018-12-06T08:43:38.217Z,1.47
2018-12-06T08:46:38.951Z,1.32
2018-12-06T08:49:40.458Z,1.27
2018-12-06T08:52:41.193Z,1.70
2018-12-06T08:55:41.672Z,1.22
2018-12-06T08:58:42.154Z,1.45
2018-12-06T09:01:42.635Z,1.60
2018-12-06T09:04:44.206Z,1.37
2018-12-06T09:07:44.617Z,1.40
2018-12-06T09:10:51.367Z,1.40
2018-12-06T09:13:45.833Z,1.87
2018-12-06T09:16:46.312Z,1.30
2018-12-06T09:19:47.050Z,2.10
2018-12-06T09:22:48.807Z,1.50
2018-12-06T09:25:49.549Z,1.37
2018-12-06T09:28:51.051Z,1.50
2018-12-06T09:31:51.790Z,1.67
2018-12-06T09:34:52.778Z,1.32
2018-12-06T09:37:53.513Z,1.22
2018-12-06T09:40:54.250Z,1.52
2018-12-06T09:43:54.989Z,1.25
2018-12-06T09:46:57.514Z,1.00
2018-12-06T09:49:57.997Z,1.30
2018-12-06T09:52:52.079Z,1.30
2018-12-06T09:55:53.839Z,1.60
2018-12-06T09:58:54.569Z,1.22
2018-12-06T10:01:55.307Z,1.00
2018-12-06T10:04:56.041Z,1.25
2018-12-06T10:07:57.032Z,1.30
2018-12-06T10:10:58.283Z,1.07
2018-12-06T10:13:51.082Z,1.15
2018-12-06T10:16:51.563Z,1.05
2018-12-06T10:19:52.557Z,0.88
2018-12-06T10:22:53.290Z,1.12
2018-12-06T10:25:54.283Z,1.00
2018-12-06T10:28:55.275Z,0.95
2018-12-06T10:31:56.010Z,0.88
2018-12-06T10:34:57.002Z,1.00
2018-12-06T10:37:58.764Z,0.70
2018-12-06T10:41:01.036Z,0.90
2018-12-06T10:43:57.928Z,1.10
2018-12-06T10:47:09.930Z,1.00
2018-12-06T10:50:10.666Z,0.80
2018-12-06T10:53:11.915Z,1.00
2018-12-06T10:56:13.161Z,0.80
2018-12-06T10:59:17.743Z,0.90
2018-12-06T11:02:31.018Z,1.05
2018-12-06T11:05:33.808Z,1.15
2018-12-06T11:08:34.793Z,1.47
2018-12-06T11:11:35.530Z,0.93
2018-12-06T11:14:39.082Z,1.70
2018-12-06T11:17:36.013Z,1.37
2018-12-06T11:20:36.716Z,1.30
2018-12-06T11:23:37.453Z,1.27
2018-12-06T11:26:37.932Z,1.00
2018-12-06T11:29:40.970Z,1.10
2018-12-06T11:32:41.729Z,0.90
2018-12-06T11:35:42.185Z,1.20
2018-12-06T11:38:39.568Z,0.82
2018-12-06T11:41:43.268Z,1.10
2018-12-06T11:44:40.811Z,0.70
2018-12-06T11:47:41.290Z,0.93
2018-12-06T11:50:45.878Z,0.80
2018-12-06T11:53:47.888Z,0.90
2018-12-06T11:56:49.642Z,0.90
2018-12-06T11:59:43.213Z,0.80
2018-12-06T12:02:44.714Z,0.80
2018-12-06T12:05:45.449Z,0.82
2018-12-06T12:08:46.185Z,0.60
2018-12-06T12:11:46.927Z,1.00
2018-12-06T12:14:47.915Z,0.78
2018-12-06T12:17:48.914Z,0.70
2018-12-06T12:20:49.897Z,0.70
2018-12-06T12:23:50.385Z,0.75
2018-12-06T12:26:51.115Z,1.02
2018-12-06T12:29:52.105Z,0.70
2018-12-06T12:32:52.870Z,0.60
2018-12-06T12:35:54.863Z,0.80
2018-12-06T12:38:56.363Z,0.80
2018-12-06T12:41:57.099Z,0.80
2018-12-06T12:44:58.348Z,0.90
2018-12-06T12:47:56.665Z,1.02
2018-12-06T12:51:05.194Z,0.95
2018-12-06T12:54:06.443Z,1.20
2018-12-06T12:57:07.440Z,1.20
2018-12-06T13:00:08.428Z,0.98
2018-12-06T13:03:09.160Z,1.15
2018-12-06T13:06:10.666Z,1.05
2018-12-06T13:09:11.144Z,0.95
2018-12-06T13:12:11.628Z,0.93
2018-12-06T13:15:12.360Z,1.30
2018-12-06T13:18:14.120Z,1.10
2018-12-06T13:21:14.601Z,0.80
2018-12-06T13:24:15.340Z,1.42
2018-12-06T13:27:16.329Z,0.95
2018-12-06T13:30:17.838Z,0.88
2018-12-06T13:33:18.899Z,0.90
2018-12-06T13:36:19.303Z,1.00
2018-12-06T13:39:22.863Z,0.98
2018-12-06T13:42:24.617Z,0.95
2018-12-06T13:45:25.354Z,0.90
2018-12-06T13:48:26.092Z,0.90
2018-12-06T13:51:26.825Z,0.80
2018-12-06T13:54:27.080Z,1.00
2018-12-06T13:57:25.232Z,0.80
2018-12-06T14:00:28.845Z,0.98
2018-12-06T14:03:29.263Z,0.80
2018-12-06T14:06:30.252Z,0.70
2018-12-06T14:09:28.168Z,1.07
2018-12-06T14:12:28.651Z,0.72
2018-12-06T14:15:29.642Z,1.05
2018-12-06T14:18:30.378Z,0.85
2018-12-06T14:21:34.190Z,0.90
2018-12-06T14:24:36.722Z,1.00
2018-12-06T14:27:42.833Z,0.90
2018-12-06T14:30:46.916Z,0.88
2018-12-06T14:33:50.951Z,0.93
2018-12-06T14:37:01.493Z,0.80
2018-12-06T14:39:54.987Z,0.80
2018-12-06T14:42:56.234Z,0.78
2018-12-06T14:45:58.253Z,0.80
2018-12-06T14:48:58.731Z,1.20
2018-12-06T14:52:00.751Z,0.70
2018-12-06T14:55:02.550Z,0.70
2018-12-06T14:58:03.500Z,0.70
2018-12-06T15:01:04.494Z,1.20
2018-12-06T15:04:07.019Z,0.80
2018-12-06T15:07:09.037Z,0.70
2018-12-06T15:10:07.835Z,1.07
2018-12-06T15:13:08.716Z,1.10
2018-12-06T15:16:10.475Z,0.82
2018-12-06T15:19:11.469Z,0.90
2018-12-06T15:22:13.739Z,1.05
2018-12-06T15:25:15.753Z,0.70
2018-12-06T15:28:17.000Z,0.90
2018-12-06T15:31:10.825Z,1.00
2018-12-06T15:34:11.561Z,2.20
2018-12-06T15:37:17.674Z,0.93
2018-12-06T15:40:18.672Z,0.78
2018-12-06T15:43:19.403Z,0.90
2018-12-06T15:46:20.139Z,0.93
2018-12-06T15:49:20.881Z,0.75
2018-12-06T15:52:21.610Z,0.98
2018-12-06T15:55:22.092Z,1.05
2018-12-06T15:58:22.824Z,0.90
2018-12-06T16:01:23.566Z,0.82
2018-12-06T16:04:25.065Z,0.90
2018-12-06T16:07:25.800Z,0.90
2018-12-06T16:10:26.286Z,0.95
2018-12-06T16:13:26.764Z,1.20
2018-12-06T16:16:31.083Z,1.32
2018-12-06T16:19:31.823Z,1.40
2018-12-06T16:22:36.392Z,0.98
2018-12-06T16:25:37.129Z,1.10
2018-12-06T16:28:38.636Z,1.00
2018-12-06T16:31:39.120Z,1.30
2018-12-06T16:34:39.855Z,1.37
2018-12-06T16:37:40.588Z,1.20
2018-12-06T16:40:42.091Z,1.57
2018-12-06T16:43:43.091Z,1.10
2018-12-06T16:46:41.264Z,1.02
2018-12-06T16:49:41.994Z,1.22
2018-12-06T16:52:43.241Z,0.88
2018-12-06T16:55:44.243Z,1.52
2018-12-06T16:58:45.487Z,1.25
2018-12-06T17:01:46.987Z,1.45
2018-12-06T17:04:48.233Z,1.30
2018-12-06T17:07:49.393Z,1.40
2018-12-06T17:10:50.217Z,1.20
2018-12-06T17:13:52.497Z,0.82
2018-12-06T17:16:53.481Z,1.10
2018-12-06T17:19:54.219Z,1.55
2018-12-06T17:22:55.214Z,1.42
2018-12-06T17:25:55.948Z,1.50
2018-12-06T17:28:57.194Z,1.55
2018-12-06T17:31:58.447Z,2.35
2018-12-06T17:34:59.434Z,4.00
2018-12-06T17:38:00.681Z,1.90
2018-12-06T17:41:01.161Z,2.35
2018-12-06T17:44:01.898Z,1.98
2018-12-06T17:47:06.228Z,1.60
2018-12-06T17:50:06.954Z,1.75
2018-12-06T17:53:52.006Z,2.35
2018-12-06T17:57:21.410Z,1.22
2018-12-06T18:00:34.668Z,1.70
2018-12-06T18:03:35.146Z,1.10
2018-12-06T18:06:35.628Z,1.47
2018-12-06T18:09:37.129Z,1.30
2018-12-06T18:12:37.610Z,1.40
2018-12-06T18:15:38.351Z,1.40
2018-12-06T18:18:40.632Z,1.70
2018-12-06T18:21:41.355Z,1.30
2018-12-06T18:24:44.139Z,1.82
2018-12-06T18:27:45.131Z,2.02
2018-12-06T18:30:47.118Z,1.40
2018-12-06T18:33:47.633Z,1.20
2018-12-06T18:36:45.272Z,1.62
2018-12-06T18:39:46.281Z,1.42
2018-12-06T18:42:47.349Z,2.00
2018-12-06T18:45:48.014Z,1.85
2018-12-06T18:48:37.898Z,2.15
2018-12-06T18:51:38.987Z,2.90
2018-12-06T18:54:39.983Z,2.20
2018-12-06T18:57:40.457Z,2.02
2018-12-06T19:00:44.265Z,2.10
2018-12-06T19:03:50.888Z,1.52
2018-12-06T19:06:52.649Z,2.52
2018-12-06T19:09:54.163Z,1.57
2018-12-06T19:12:55.144Z,1.70
2018-12-06T19:15:56.396Z,2.52
2018-12-06T19:18:57.641Z,2.62
2018-12-06T19:21:59.657Z,1.72
2018-12-06T19:25:00.648Z,2.83
2018-12-06T19:28:01.644Z,1.92
2018-12-06T19:31:02.126Z,2.05
2018-12-06T19:34:04.912Z,2.00
2018-12-06T19:37:07.177Z,2.40
2018-12-06T19:40:08.168Z,2.20
2018-12-06T19:43:08.914Z,2.30
2018-12-06T19:46:09.900Z,1.75
2018-12-06T19:49:10.891Z,1.32
2018-12-06T19:52:12.650Z,1.72
2018-12-06T19:55:14.413Z,1.72
2018-12-06T19:58:16.445Z,2.10
2018-12-06T20:01:13.676Z,1.75
2018-12-06T20:04:12.779Z,1.82
2018-12-06T20:07:16.839Z,2.45
2018-12-06T20:10:17.585Z,2.33
2018-12-06T20:13:19.081Z,1.70
2018-12-06T20:16:21.097Z,1.87
2018-12-06T20:19:22.091Z,1.70
2018-12-06T20:22:23.085Z,1.87
2018-12-06T20:25:24.084Z,2.17
2018-12-06T20:28:26.545Z,1.77
2018-12-06T20:31:25.292Z,2.20
2018-12-06T20:34:26.029Z,2.47
2018-12-06T20:37:27.789Z,2.00
2018-12-06T20:40:28.527Z,1.70
2018-12-06T20:43:29.274Z,1.90
2018-12-06T20:46:24.808Z,1.67
2018-12-06T20:49:25.864Z,2.02
2018-12-06T20:52:27.385Z,2.27
2018-12-06T20:55:31.946Z,1.80
2018-12-06T20:58:33.191Z,1.22
2018-12-06T21:01:36.746Z,1.90
2018-12-06T21:04:37.993Z,1.80
2018-12-06T21:07:38.985Z,2.27
2018-12-06T21:10:39.473Z,2.70
2018-12-06T21:13:36.758Z,1.62
2018-12-06T21:16:37.608Z,2.35
2018-12-06T21:19:40.138Z,1.70
2018-12-06T21:22:40.616Z,1.95
2018-12-06T21:25:41.356Z,2.60
2018-12-06T21:28:42.346Z,1.87
2018-12-06T21:31:30.371Z,2.70
2018-12-06T21:34:39.734Z,3.17
2018-12-06T21:37:40.461Z,2.80
2018-12-06T21:40:41.449Z,3.60
2018-12-06T21:43:36.567Z,2.87
2018-12-06T21:46:39.093Z,5.22
2018-12-06T21:49:41.887Z,2.60
2018-12-06T21:52:44.911Z,2.90
2018-12-06T21:55:47.952Z,2.62
2018-12-06T21:58:50.472Z,2.30
2018-12-06T22:01:52.236Z,2.95
2018-12-06T22:04:53.995Z,2.62
2018-12-06T22:07:54.731Z,2.83
2018-12-06T22:10:56.491Z,3.05
2018-12-06T22:13:53.458Z,2.20
2018-12-06T22:16:54.380Z,2.75
2018-12-06T22:19:55.640Z,2.58
2018-12-06T22:22:56.363Z,2.60
2018-12-06T22:25:57.614Z,3.17
2018-12-06T22:28:58.878Z,2.85
2018-12-06T22:31:59.340Z,4.12
2018-12-06T22:35:03.146Z,3.67
2018-12-06T22:38:03.885Z,3.62
2018-12-06T22:41:05.944Z,3.33
2018-12-06T22:44:06.638Z,3.12
2018-12-06T22:47:07.888Z,2.50
2018-12-06T22:50:08.620Z,3.20
2018-12-06T22:53:09.356Z,3.12
2018-12-06T22:56:10.355Z,3.27
2018-12-06T22:59:11.596Z,3.65
2018-12-06T23:02:12.591Z,3.50
2018-12-06T23:05:13.334Z,6.80
2018-12-06T23:08:15.596Z,6.60
2018-12-06T23:11:16.074Z,4.28
2018-12-06T23:14:16.555Z,4.37
2018-12-06T23:17:18.318Z,3.50
2018-12-06T23:20:20.079Z,2.77
2018-12-06T23:23:13.129Z,6.22
2018-12-06T23:26:14.123Z,3.15
2018-12-06T23:29:15.112Z,20.52
2018-12-06T23:32:16.106Z,2.50
2018-12-06T23:36:12.649Z,3.35
2018-12-06T23:39:14.410Z,3.40
2018-12-06T23:42:15.405Z,3.30
2018-12-06T23:45:16.138Z,3.98
2018-12-06T23:48:16.875Z,3.42
2018-12-06T23:51:21.197Z,2.12
2018-12-06T23:54:23.468Z,2.92
2018-12-06T23:57:24.208Z,3.87
